Time;durP1;ratioP1;P1;durP2;ratioP2;P2;SDS_P1;SDS_P2;PMS_P1;PMS_P2;Temp;Humidity;BMP_temperature;BMP_pressure;BME280_temperature;BME280_humidity;BME280_pressure;Samples;Min_cycle;Max_cycle;Signal;HPM_P1;HPM_P2
2023/08/25 00:01:16;;;;;;;5.85;3.28;;;;;;;12.07;94.21;99336.09;5029349;28;20048;-47
2023/08/25 00:03:42;;;;;;;8.77;3.67;;;;;;;12.19;94.38;99362.47;5027965;28;20041;-46
2023/08/25 00:06:08;;;;;;;8.90;3.50;;;;;;;12.18;94.71;99363.38;4993734;28;20494;-47
2023/08/25 00:08:35;;;;;;;7.22;3.83;;;;;;;12.17;94.54;99364.28;5011954;28;20071;-47
2023/08/25 00:11:01;;;;;;;7.15;3.63;;;;;;;12.16;94.76;99362.59;5025043;28;20100;-44
2023/08/25 00:13:27;;;;;;;5.47;3.60;;;;;;;12.14;94.87;99367.00;5029972;28;20087;-47
2023/08/25 00:15:53;;;;;;;5.50;3.25;;;;;;;12.12;95.29;99365.41;5010339;28;20045;-46
2023/08/25 00:18:18;;;;;;;7.45;3.47;;;;;;;12.10;95.12;99364.63;5025715;28;20429;-45
2023/08/25 00:20:44;;;;;;;6.75;3.58;;;;;;;12.07;95.34;99362.16;5030985;28;20041;-45
2023/08/25 00:23:11;;;;;;;8.75;4.00;;;;;;;12.05;95.37;99367.44;5028975;28;20456;-45
2023/08/25 00:25:37;;;;;;;9.38;3.45;;;;;;;11.92;95.27;99342.03;5013038;28;20132;-43
2023/08/25 00:28:03;;;;;;;9.32;3.38;;;;;;;12.01;95.46;99355.47;5027055;28;20539;-46
2023/08/25 00:30:28;;;;;;;8.93;4.00;;;;;;;12.00;95.71;99361.59;5012929;28;20119;-45
2023/08/25 00:32:57;;;;;;;9.73;3.88;;;;;;;11.83;96.11;99330.22;5028061;28;20040;-45
2023/08/25 00:35:23;;;;;;;9.40;4.15;;;;;;;12.03;96.38;99358.00;5005641;28;20093;-48
2023/08/25 00:37:49;;;;;;;7.75;3.58;;;;;;;12.00;96.18;99356.38;4995189;28;20509;-45
2023/08/25 00:40:15;;;;;;;5.97;3.60;;;;;;;12.00;96.49;99350.31;5003763;28;20045;-45
2023/08/25 00:42:41;;;;;;;7.90;4.10;;;;;;;11.88;96.43;99338.69;5025907;28;20044;-48
2023/08/25 00:45:07;;;;;;;9.05;4.43;;;;;;;11.79;96.62;99328.69;5027982;28;20045;-43
2023/08/25 00:47:33;;;;;;;6.75;3.53;;;;;;;11.87;96.71;99343.06;5027663;28;20037;-44
2023/08/25 00:49:59;;;;;;;8.65;3.70;;;;;;;11.92;97.08;99360.25;5028992;28;20049;-44
2023/08/25 00:52:26;;;;;;;9.52;3.63;;;;;;;11.95;97.04;99366.16;5030403;28;20037;-43
2023/08/25 00:54:53;;;;;;;12.40;4.13;;;;;;;11.79;97.26;99339.09;5012419;28;20064;-44
2023/08/25 00:57:20;;;;;;;5.72;3.47;;;;;;;11.95;97.00;99370.53;5026690;28;20042;-45
2023/08/25 00:59:46;;;;;;;5.82;3.65;;;;;;;11.89;97.16;99371.63;5029050;28;20475;-44
2023/08/25 01:02:12;;;;;;;10.93;4.05;;;;;;;11.72;97.54;99340.28;5027060;28;20425;-46
2023/08/25 01:04:38;;;;;;;8.65;3.97;;;;;;;11.85;97.25;99373.53;5027561;28;20170;-45
2023/08/25 01:07:05;;;;;;;5.85;3.50;;;;;;;11.85;97.41;99370.09;5028026;28;20033;-45
2023/08/25 01:09:34;;;;;;;10.77;4.07;;;;;;;11.81;97.66;99371.16;4996253;28;20476;-46
2023/08/25 01:12:01;;;;;;;;;;;;;;;11.80;97.79;99369.44;5025821;28;20038;-45
2023/08/25 01:14:47;;;;;;;7.85;3.60;;;;;;;11.74;97.75;99373.16;5030027;28;20004;-44
2023/08/25 01:17:22;;;;;;;8.27;3.80;;;;;;;11.73;98.19;99378.44;5027417;28;20041;-45
2023/08/25 01:19:58;;;;;;;10.63;4.32;;;;;;;11.71;98.20;99381.09;5028753;28;20052;-45
2023/08/25 01:22:35;;;;;;;10.00;4.30;;;;;;;11.72;98.55;99382.75;5049822;28;20053;-48
2023/08/25 01:25:22;;;;;;;13.35;4.00;;;;;;;11.70;98.59;99378.56;5028013;28;20065;-46
2023/08/25 01:27:50;;;;;;;8.88;4.00;;;;;;;11.70;98.42;99381.16;5026349;28;20037;-45
2023/08/25 01:30:16;;;;;;;8.77;3.90;;;;;;;11.69;98.81;99387.28;5011773;28;20048;-44
2023/08/25 01:32:42;;;;;;;10.23;4.30;;;;;;;11.67;98.89;99378.69;5026031;28;20041;-46
2023/08/25 01:35:09;;;;;;;8.27;4.35;;;;;;;11.66;99.00;99380.47;5010279;28;20037;-47
2023/08/25 01:37:39;;;;;;;8.15;4.05;;;;;;;11.65;99.12;99370.09;5010832;28;20136;-45
2023/08/25 01:40:12;;;;;;;12.48;5.10;;;;;;;11.63;98.88;99382.31;5011739;28;20141;-49
2023/08/25 01:42:41;;;;;;;6.43;4.05;;;;;;;11.62;99.25;99380.66;5024858;28;20692;-47
2023/08/25 01:45:09;;;;;;;11.02;4.05;;;;;;;11.29;99.01;99325.69;5019229;28;20120;-45
2023/08/25 01:47:35;;;;;;;10.98;3.92;;;;;;;11.61;99.06;99373.75;4993512;28;20060;-47
2023/08/25 01:50:05;;;;;;;7.60;3.78;;;;;;;11.62;99.28;99380.66;5001970;28;20112;-46
2023/08/25 01:52:31;;;;;;;10.27;4.00;;;;;;;11.61;99.13;99378.97;5008636;28;20061;-49
2023/08/25 01:54:57;;;;;;;9.00;3.85;;;;;;;11.40;99.09;99352.94;5052748;28;20077;-49
2023/08/25 01:57:23;;;;;;;10.30;3.85;;;;;;;11.56;99.43;99371.34;5019517;28;20547;-47
2023/08/25 01:59:49;;;;;;;7.43;3.95;;;;;;;11.54;99.14;99378.38;5027614;28;20045;-45
2023/08/25 02:02:15;;;;;;;15.07;4.70;;;;;;;11.36;99.60;99348.75;5002091;28;20048;-43
2023/08/25 02:04:41;;;;;;;10.93;4.00;;;;;;;11.52;99.68;99384.53;5026914;28;20148;-47
2023/08/25 02:07:06;;;;;;;8.13;3.67;;;;;;;11.52;100.00;99385.41;5011095;28;20520;-45
2023/08/25 02:09:32;;;;;;;9.70;3.92;;;;;;;11.51;99.72;99381.13;5027859;28;20053;-49
2023/08/25 02:11:58;;;;;;;12.75;4.10;;;;;;;11.49;99.59;99380.31;4986377;28;20034;-45
2023/08/25 02:14:26;;;;;;;9.43;4.05;;;;;;;11.45;99.76;99377.03;4995224;28;20448;-47
2023/08/25 02:17:12;;;;;;;7.00;3.63;;;;;;;11.46;99.62;99383.91;5027696;28;20052;-45
2023/08/25 02:19:38;;;;;;;9.13;4.47;;;;;;;11.46;100.00;99383.91;5011150;28;20485;-43
2023/08/25 02:22:04;;;;;;;8.55;3.95;;;;;;;11.45;100.00;99381.38;5020976;28;20053;-45
2023/08/25 02:24:30;;;;;;;9.10;4.45;;;;;;;11.25;99.81;99350.16;4994115;28;20039;-44
2023/08/25 02:26:56;;;;;;;11.85;4.85;;;;;;;11.34;100.00;99371.44;5025207;28;20059;-46
2023/08/25 02:29:22;;;;;;;10.30;4.50;;;;;;;11.38;100.00;99385.16;5027026;28;20060;-47
2023/08/25 02:31:48;;;;;;;15.13;4.93;;;;;;;11.40;100.00;99383.34;5021497;28;20088;-46
2023/08/25 02:34:14;;;;;;;11.23;4.70;;;;;;;11.41;100.00;99385.00;5027332;28;20451;-46
2023/08/25 02:36:40;;;;;;;13.15;4.45;;;;;;;11.43;100.00;99388.41;5027222;28;20626;-44
2023/08/25 02:39:05;;;;;;;12.98;4.68;;;;;;;11.40;100.00;99388.53;5008095;28;20037;-44
2023/08/25 02:41:33;;;;;;;9.18;4.50;;;;;;;11.39;100.00;99384.25;5027434;28;20095;-44
2023/08/25 02:43:59;;;;;;;10.88;4.80;;;;;;;11.42;100.00;99381.50;5047493;28;20054;-46
2023/08/25 02:46:25;;;;;;;9.13;4.50;;;;;;;11.50;100.00;99389.00;5026937;28;20051;-44
2023/08/25 02:48:52;;;;;;;16.83;5.25;;;;;;;11.50;100.00;99387.22;5027106;28;20037;-46
2023/08/25 02:51:18;;;;;;;16.67;5.38;;;;;;;11.54;100.00;99395.75;5026163;28;20052;-50
2023/08/25 02:53:44;;;;;;;13.98;4.45;;;;;;;11.54;100.00;99400.94;5013207;28;20103;-48
2023/08/25 02:56:10;;;;;;;12.40;5.05;;;;;;;11.54;100.00;99391.38;5026586;28;20045;-46
2023/08/25 02:58:37;;;;;;;12.82;4.32;;;;;;;11.55;100.00;99390.47;5010826;28;20041;-47
2023/08/25 03:01:13;;;;;;;11.95;4.40;;;;;;;11.59;100.00;99392.03;5004953;28;20053;-48
2023/08/25 03:03:39;;;;;;;10.13;4.20;;;;;;;11.62;100.00;99386.69;5019717;28;20467;-48
2023/08/25 03:06:06;;;;;;;9.52;4.35;;;;;;;11.59;100.00;99380.78;5026014;28;20041;-48
2023/08/25 03:08:33;;;;;;;10.40;4.40;;;;;;;11.66;100.00;99390.03;5007229;28;20120;-50
2023/08/25 03:11:03;;;;;;;9.82;4.47;;;;;;;11.76;100.00;99405.22;5015630;28;20502;-48
2023/08/25 03:13:30;;;;;;;11.30;4.40;;;;;;;11.78;100.00;99392.94;5025302;28;20037;-46
2023/08/25 03:15:59;;;;;;;10.40;4.10;;;;;;;11.68;100.00;99385.56;5006485;28;20042;-44
2023/08/25 03:18:26;;;;;;;10.98;4.22;;;;;;;11.85;100.00;99410.00;5025522;28;20098;-48
2023/08/25 03:20:52;;;;;;;8.18;4.10;;;;;;;11.84;100.00;99410.06;5022783;28;20136;-46
2023/08/25 03:23:20;;;;;;;13.15;4.40;;;;;;;11.66;100.00;99384.81;5009002;28;20040;-46
2023/08/25 03:25:46;;;;;;;12.98;4.38;;;;;;;11.86;100.00;99411.72;5008427;28;20581;-46
2023/08/25 03:28:12;;;;;;;9.77;4.93;;;;;;;11.94;100.00;99419.16;5029179;28;20049;-46
2023/08/25 03:30:39;;;;;;;12.90;5.88;;;;;;;11.84;100.00;99389.22;5031283;28;20037;-44
2023/08/25 03:33:07;;;;;;;11.45;4.53;;;;;;;11.87;100.00;99389.13;5014068;28;20045;-46
2023/08/25 03:35:36;;;;;;;8.40;4.45;;;;;;;12.05;100.00;99410.88;5030934;28;20038;-44
2023/08/25 03:38:02;;;;;;;14.13;4.35;;;;;;;12.09;100.00;99415.88;5015432;28;20075;-46
2023/08/25 03:40:29;;;;;;;11.52;4.55;;;;;;;12.12;99.93;99420.97;5032644;28;20029;-45
2023/08/25 03:42:55;;;;;;;23.27;5.22;;;;;;;12.15;99.92;99414.75;4996337;28;20044;-44
2023/08/25 03:45:21;;;;;;;12.82;4.75;;;;;;;12.21;100.00;99423.16;5012416;28;20049;-44
2023/08/25 03:47:48;;;;;;;14.90;4.47;;;;;;;12.28;99.51;99421.97;5000824;28;20041;-47
2023/08/25 03:50:14;;;;;;;11.25;4.50;;;;;;;12.32;99.30;99418.31;5032802;28;20089;-44
2023/08/25 03:52:40;;;;;;;9.73;4.47;;;;;;;12.38;98.72;99429.38;5033060;28;20037;-44
2023/08/25 03:55:06;;;;;;;14.50;4.60;;;;;;;12.41;98.48;99426.63;5030129;28;20049;-47
2023/08/25 03:57:32;;;;;;;7.43;4.00;;;;;;;12.41;98.01;99421.41;5016491;28;20532;-46
2023/08/25 03:59:58;;;;;;;8.85;4.15;;;;;;;12.24;97.95;99388.31;5030266;28;20037;-44
2023/08/25 04:02:24;;;;;;;9.75;4.45;;;;;;;12.50;97.43;99423.59;5026127;28;20053;-45
2023/08/25 04:04:51;;;;;;;11.50;4.40;;;;;;;12.58;97.17;99427.53;5031509;28;20095;-47
2023/08/25 04:07:20;;;;;;;9.50;4.32;;;;;;;12.64;96.75;99426.41;5026634;28;20049;-46
2023/08/25 04:09:46;;;;;;;10.98;4.30;;;;;;;12.73;96.43;99429.44;5031990;28;20128;-48
2023/08/25 04:12:16;;;;;;;9.55;4.32;;;;;;;12.81;95.91;99433.44;5030982;28;20151;-44
2023/08/25 04:14:42;;;;;;;13.75;4.60;;;;;;;12.77;95.34;99411.84;5028160;28;20045;-46
2023/08/25 04:17:08;;;;;;;8.25;4.47;;;;;;;12.90;94.74;99425.19;5032481;28;20416;-46
2023/08/25 04:19:34;;;;;;;15.45;4.97;;;;;;;12.97;94.79;99430.03;5032584;28;20041;-44
2023/08/25 04:22:00;;;;;;;9.23;4.50;;;;;;;13.00;94.30;99427.28;4996926;28;20042;-45
2023/08/25 04:24:26;;;;;;;11.10;4.32;;;;;;;13.11;93.73;99432.84;5015319;28;20472;-48
2023/08/25 04:26:54;;;;;;;8.10;4.05;;;;;;;13.18;93.22;99433.41;5023593;28;20037;-44
2023/08/25 04:29:20;;;;;;;15.60;3.92;;;;;;;13.09;92.78;99411.16;5029910;28;20071;-44
2023/08/25 04:31:46;;;;;;;6.47;3.80;;;;;;;13.34;92.19;99442.19;5032508;28;20135;-45
2023/08/25 04:34:23;;;;;;;11.93;4.30;;;;;;;13.14;91.74;99388.31;5031252;28;20635;-46
2023/08/25 04:36:50;;;;;;;10.98;4.75;;;;;;;13.50;91.43;99440.47;5000103;28;20037;-46
2023/08/25 04:39:16;;;;;;;12.38;4.32;;;;;;;13.60;90.85;99440.03;5030355;28;20041;-45
2023/08/25 04:41:42;;;;;;;14.85;4.80;;;;;;;13.47;90.34;99411.91;5029357;28;20092;-46
2023/08/25 04:44:08;;;;;;;10.80;4.40;;;;;;;13.69;90.19;99436.94;5027136;28;20539;-45
2023/08/25 04:46:35;;;;;;;9.55;4.38;;;;;;;13.76;89.71;99446.16;5029333;28;20048;-47
2023/08/25 04:49:01;;;;;;;11.93;4.60;;;;;;;13.84;89.46;99450.06;4979838;28;20045;-46
2023/08/25 04:51:27;;;;;;;21.73;4.90;;;;;;;13.92;88.50;99455.72;5029145;28;20044;-46
2023/08/25 04:53:53;;;;;;;14.82;3.92;;;;;;;14.02;87.95;99453.50;5008986;28;20049;-45
2023/08/25 04:56:19;;;;;;;18.13;5.00;;;;;;;14.10;87.44;99458.31;5026035;28;20053;-44
2023/08/25 04:58:45;;;;;;;17.42;4.68;;;;;;;14.16;86.52;99453.63;5026370;28;20516;-44
2023/08/25 05:01:13;;;;;;;13.15;4.63;;;;;;;14.26;85.89;99449.59;5011144;28;20053;-44
2023/08/25 05:03:42;;;;;;;13.18;4.82;;;;;;;14.34;85.33;99450.00;5026189;28;20045;-48
2023/08/25 05:06:07;;;;;;;15.50;4.32;;;;;;;14.44;84.49;99447.81;5024902;28;20132;-46
2023/08/25 05:08:35;;;;;;;11.93;4.10;;;;;;;14.32;83.58;99417.91;5028865;28;20037;-48
2023/08/25 05:11:03;;;;;;;22.67;4.47;;;;;;;14.64;82.90;99459.81;5010107;28;20053;-51
2023/08/25 05:13:29;;;;;;;20.25;4.82;;;;;;;14.72;82.33;99455.00;5027707;28;20041;-45
2023/08/25 05:15:55;;;;;;;15.52;4.93;;;;;;;14.81;81.69;99457.94;5011882;28;20052;-44
2023/08/25 05:18:40;;;;;;;17.75;4.68;;;;;;;14.94;80.70;99455.50;5002729;28;20048;-46
2023/08/25 05:21:07;;;;;;;7.03;3.05;;;;;;;14.88;80.01;99420.97;5003002;28;20033;-44
2023/08/25 05:23:32;;;;;;;9.50;3.20;;;;;;;15.03;78.72;99431.41;5028021;28;20045;-44
2023/08/25 05:25:58;;;;;;;9.30;3.88;;;;;;;15.28;76.97;99455.28;5010489;28;20049;-45
2023/08/25 05:28:25;;;;;;;5.78;2.45;;;;;;;15.40;76.38;99460.75;5011633;28;20049;-50
2023/08/25 05:30:50;;;;;;;5.65;2.85;;;;;;;15.51;74.39;99455.72;5036908;28;20501;-47
2023/08/25 05:33:22;;;;;;;7.90;2.50;;;;;;;15.62;73.53;99459.44;5025306;28;20320;-47
2023/08/25 05:36:05;;;;;;;5.70;2.55;;;;;;;15.67;72.73;99444.31;5025999;28;20068;-44
2023/08/25 05:38:31;;;;;;;8.73;2.50;;;;;;;15.88;72.30;99460.53;5027966;28;20037;-46
2023/08/25 05:40:56;;;;;;;5.18;1.65;;;;;;;15.99;71.76;99460.75;5025614;28;20044;-47
2023/08/25 05:43:24;;;;;;;5.97;2.10;;;;;;;15.96;69.86;99437.31;5011042;28;20907;-42
2023/08/25 05:45:49;;;;;;;5.22;2.20;;;;;;;16.20;69.56;99463.84;5023553;28;20057;-46
2023/08/25 05:48:15;;;;;;;4.85;1.85;;;;;;;16.30;69.02;99459.72;5029612;28;20045;-47
2023/08/25 05:50:41;;;;;;;4.53;1.40;;;;;;;16.41;67.37;99465.16;5029625;28;20046;-45
2023/08/25 05:53:10;;;;;;;4.40;1.75;;;;;;;16.46;65.45;99463.09;5032930;28;20052;-45
2023/08/25 05:55:36;;;;;;;2.07;1.67;;;;;;;16.62;64.50;99476.13;5007311;28;20591;-47
2023/08/25 05:58:01;;;;;;;4.68;1.52;;;;;;;16.59;63.74;99454.50;5025576;28;20318;-46
2023/08/25 06:00:28;;;;;;;5.88;1.65;;;;;;;16.75;62.97;99447.31;5025562;28;20037;-46
2023/08/25 06:02:54;;;;;;;4.72;1.38;;;;;;;17.06;62.10;99469.88;5020453;28;20493;-47
2023/08/25 06:05:20;;;;;;;10.90;2.28;;;;;;;17.23;61.64;99464.34;5024164;28;20049;-49
2023/08/25 06:07:47;;;;;;;5.78;1.77;;;;;;;17.40;61.88;99466.72;5023461;28;20087;-48
2023/08/25 06:10:12;;;;;;;5.85;1.60;;;;;;;17.65;61.29;99466.81;5051845;28;20033;-45
2023/08/25 06:12:38;;;;;;;2.20;1.30;;;;;;;18.04;59.83;99465.91;5018981;28;20563;-50
2023/08/25 06:15:05;;;;;;;10.65;1.50;;;;;;;18.72;57.87;99446.28;5023502;28;20088;-46
2023/08/25 06:17:32;;;;;;;2.63;1.25;;;;;;;19.81;54.96;99478.59;5010767;28;20091;-49
2023/08/25 06:19:58;;;;;;;3.28;1.27;;;;;;;20.86;52.83;99475.66;5007626;28;20610;-50
2023/08/25 06:22:24;;;;;;;3.78;1.30;;;;;;;21.87;50.72;99470.88;5028325;28;20733;-50
2023/08/25 06:24:49;;;;;;;4.65;1.10;;;;;;;22.77;48.90;99453.38;5026817;28;20127;-45
2023/08/25 06:27:15;;;;;;;6.57;1.40;;;;;;;23.79;47.01;99470.69;5027351;28;20046;-50
2023/08/25 06:29:41;;;;;;;2.63;1.33;;;;;;;24.60;44.16;99453.28;5022025;28;20041;-47
2023/08/25 06:32:07;;;;;;;2.53;1.50;;;;;;;25.60;42.37;99464.69;5027112;28;20038;-49
2023/08/25 06:34:33;;;;;;;3.53;1.98;;;;;;;26.31;40.31;99451.25;5028591;28;20052;-46
2023/08/25 06:36:59;;;;;;;4.63;1.40;;;;;;;27.35;38.55;99464.13;5027080;28;20516;-46
2023/08/25 06:39:26;;;;;;;5.10;1.63;;;;;;;28.09;36.73;99451.63;5026689;28;20044;-51
2023/08/25 06:41:52;;;;;;;6.95;1.30;;;;;;;28.96;34.47;99470.25;5010408;28;20073;-46
2023/08/25 06:44:18;;;;;;;3.38;1.40;;;;;;;29.72;32.54;99457.91;5024827;28;20053;-51
2023/08/25 06:46:44;;;;;;;2.75;1.50;;;;;;;30.45;30.88;99463.38;5021689;28;20493;-50
2023/08/25 06:49:11;;;;;;;2.20;1.17;;;;;;;31.10;29.65;99463.44;5026176;28;20037;-44
2023/08/25 06:51:37;;;;;;;4.20;1.23;;;;;;;31.79;28.63;99469.09;5028351;28;20455;-53
2023/08/25 06:54:03;;;;;;;3.08;1.40;;;;;;;32.50;27.59;99464.47;5028217;28;20088;-51
2023/08/25 06:56:29;;;;;;;4.70;1.52;;;;;;;33.14;27.17;99464.97;5027932;28;20048;-46
2023/08/25 06:58:55;;;;;;;3.17;1.45;;;;;;;33.69;26.28;99473.00;5023881;28;20077;-45
2023/08/25 07:01:21;;;;;;;3.67;1.40;;;;;;;34.23;24.51;99462.81;5009430;28;20045;-50
2023/08/25 07:03:47;;;;;;;5.30;2.83;;;;;;;34.68;24.71;99479.13;5026235;28;20087;-47
2023/08/25 07:06:13;;;;;;;4.35;1.45;;;;;;;35.13;24.11;99467.31;5027703;28;20043;-50
2023/08/25 07:08:39;;;;;;;2.55;1.40;;;;;;;35.71;23.22;99474.47;5027985;28;20049;-50
2023/08/25 07:11:05;;;;;;;8.90;4.65;;;;;;;36.32;22.51;99478.13;5020440;28;20063;-49
2023/08/25 07:13:31;;;;;;;5.53;1.42;;;;;;;36.69;21.13;99486.31;5026414;28;20034;-50
2023/08/25 07:15:58;;;;;;;1.75;1.50;;;;;;;36.75;21.12;99486.22;5025399;28;20041;-48
2023/08/25 07:18:24;;;;;;;2.35;1.13;;;;;;;35.79;21.72;99471.50;5027700;28;20041;-48
2023/08/25 07:20:51;;;;;;;2.10;1.20;;;;;;;33.27;24.14;99474.16;5022319;28;20045;-47
2023/08/25 07:23:18;;;;;;;3.22;1.42;;;;;;;33.82;23.07;99471.13;5026214;28;20037;-48
2023/08/25 07:25:44;;;;;;;2.33;1.42;;;;;;;34.75;22.36;99477.28;5024070;28;20045;-48
2023/08/25 07:28:10;;;;;;;6.32;2.45;;;;;;;34.53;22.52;99481.25;5027552;28;20543;-48
2023/08/25 07:30:37;;;;;;;5.85;2.03;;;;;;;35.71;21.60;99482.59;5019165;28;20091;-48
2023/08/25 07:33:05;;;;;;;5.97;1.50;;;;;;;36.81;20.25;99487.19;5027797;28;20591;-48
2023/08/25 07:35:37;;;;;;;6.63;1.90;;;;;;;37.69;19.60;99476.59;5027886;28;20491;-49
2023/08/25 07:38:04;;;;;;;7.63;2.38;;;;;;;38.69;18.97;99476.53;5026568;28;20053;-48
2023/08/25 07:40:31;;;;;;;2.57;1.50;;;;;;;39.15;18.56;99487.28;5020128;28;20041;-51
2023/08/25 07:43:01;;;;;;;5.30;1.55;;;;;;;39.11;18.15;99474.41;5027664;28;20082;-49
2023/08/25 07:45:28;;;;;;;3.88;1.77;;;;;;;39.66;17.79;99488.25;5009875;28;20424;-50
2023/08/25 07:48:01;;;;;;;3.17;2.00;;;;;;;40.33;17.18;99483.63;5023803;28;20037;-49
2023/08/25 07:50:28;;;;;;;3.83;1.98;;;;;;;40.96;16.64;99485.84;5023774;28;20501;-50
2023/08/25 07:52:54;;;;;;;4.47;2.40;;;;;;;41.18;16.26;99458.56;5027756;28;20647;-53
2023/08/25 07:55:21;;;;;;;5.95;2.25;;;;;;;41.62;16.10;99481.09;5027456;28;20052;-46
2023/08/25 07:57:47;;;;;;;3.80;2.08;;;;;;;41.97;15.55;99491.53;5026291;28;20488;-46
2023/08/25 08:00:17;;;;;;;4.47;1.98;;;;;;;42.12;14.92;99467.06;5021402;28;20104;-47
2023/08/25 08:02:45;;;;;;;2.42;2.00;;;;;;;41.01;15.58;99475.00;5047526;28;20041;-52
2023/08/25 08:05:12;;;;;;;7.68;2.60;;;;;;;41.01;15.26;99477.72;5025468;28;20056;-48
2023/08/25 08:07:38;;;;;;;4.30;2.17;;;;;;;40.62;15.15;99452.44;5026224;28;20041;-48
2023/08/25 08:10:05;;;;;;;5.60;2.40;;;;;;;41.09;15.00;99475.66;5023503;28;20045;-51
2023/08/25 08:12:31;;;;;;;4.68;1.90;;;;;;;41.48;15.16;99465.41;5027391;28;20053;-47
2023/08/25 08:14:57;;;;;;;5.32;4.25;;;;;;;41.65;15.07;99468.84;5027636;28;20038;-47
2023/08/25 08:17:23;;;;;;;3.25;1.55;;;;;;;40.83;15.43;99467.13;5030793;28;20433;-50
2023/08/25 08:19:49;;;;;;;1.80;1.50;;;;;;;37.82;17.63;99462.84;5027412;28;20048;-49
2023/08/25 08:22:17;;;;;;;4.00;2.10;;;;;;;35.24;20.05;99457.72;5029723;28;20045;-48
2023/08/25 08:24:49;;;;;;;;;;;;;;;33.27;21.72;99461.50;5013262;28;20184;-50
2023/08/25 08:27:15;;;;;;;5.38;1.73;;;;;;;31.53;23.78;99450.84;5029622;28;19923;-51
2023/08/25 08:29:42;;;;;;;8.45;1.90;;;;;;;30.15;25.92;99451.78;5029710;28;20501;-47
2023/08/25 08:32:08;;;;;;;7.45;1.80;;;;;;;28.99;27.49;99453.88;5020908;28;20033;-52
2023/08/25 08:34:36;;;;;;;4.07;1.90;;;;;;;28.14;28.71;99439.44;5030977;28;20041;-48
2023/08/25 08:37:05;;;;;;;3.67;1.60;;;;;;;27.48;29.34;99446.81;4996446;28;20037;-51
2023/08/25 08:39:34;;;;;;;3.42;1.67;;;;;;;26.91;30.01;99447.50;5023459;28;20041;-49
2023/08/25 08:42:03;;;;;;;4.75;1.63;;;;;;;26.39;29.93;99446.78;5022115;28;20048;-47
2023/08/25 08:44:30;;;;;;;2.70;1.25;;;;;;;25.91;29.96;99447.28;5021928;28;20052;-46
2023/08/25 08:46:57;;;;;;;2.55;1.27;;;;;;;25.48;30.65;99449.94;5028794;28;20064;-47
2023/08/25 08:49:26;;;;;;;5.22;1.70;;;;;;;25.62;29.97;99450.25;5029084;28;20166;-47
2023/08/25 08:51:51;;;;;;;;;;;;;;;28.04;27.59;99457.47;5009205;28;20061;-49
2023/08/25 08:54:20;;;;;;;5.30;1.50;;;;;;;30.67;24.86;99438.31;5029352;28;19948;-50
2023/08/25 08:56:46;;;;;;;5.35;1.75;;;;;;;33.29;22.80;99467.50;5028991;28;20098;-50
2023/08/25 08:59:12;;;;;;;4.63;1.75;;;;;;;35.22;21.14;99476.03;5028863;28;20129;-49
2023/08/25 09:01:41;;;;;;;6.35;1.88;;;;;;;36.76;19.85;99479.75;5022453;28;20132;-52
2023/08/25 09:04:08;;;;;;;4.82;2.20;;;;;;;37.95;19.05;99480.78;5030050;28;20579;-48
2023/08/25 09:06:36;;;;;;;3.20;1.60;;;;;;;38.85;18.49;99478.50;5030097;28;20099;-46
2023/08/25 09:09:05;;;;;;;4.38;2.10;;;;;;;39.17;18.04;99487.88;5028862;28;20052;-51
2023/08/25 09:11:36;;;;;;;2.72;1.70;;;;;;;39.39;17.45;99475.25;5016823;28;20037;-48
2023/08/25 09:14:07;;;;;;;4.00;1.50;;;;;;;39.92;16.78;99476.72;5028803;28;20129;-44
2023/08/25 09:16:35;;;;;;;2.53;1.20;;;;;;;39.58;16.12;99469.59;5018331;28;20069;-49
2023/08/25 09:19:03;;;;;;;1.77;0.98;;;;;;;37.20;17.38;99447.91;5019123;28;20517;-50
2023/08/25 09:21:29;;;;;;;4.05;1.10;;;;;;;34.82;19.18;99440.22;5004219;28;20135;-50
2023/08/25 09:23:58;;;;;;;3.65;1.30;;;;;;;33.11;20.98;99453.75;5012113;28;20041;-49
2023/08/25 09:26:24;;;;;;;7.70;1.08;;;;;;;31.53;22.19;99452.72;5025880;28;20045;-47
2023/08/25 09:28:58;;;;;;;6.43;1.45;;;;;;;30.19;23.68;99426.28;5022575;28;20063;-50
2023/08/25 09:31:28;;;;;;;1.73;0.80;;;;;;;29.48;24.53;99448.19;5024886;28;20041;-51
2023/08/25 09:34:04;;;;;;;3.63;1.10;;;;;;;28.69;26.13;99451.94;5021986;28;20037;-50
2023/08/25 09:36:30;;;;;;;1.58;1.00;;;;;;;28.08;26.36;99455.28;5022254;28;20120;-50
2023/08/25 09:38:56;;;;;;;2.25;1.00;;;;;;;27.50;27.66;99445.66;5027814;28;20093;-50
2023/08/25 09:41:26;;;;;;;3.97;1.15;;;;;;;27.38;27.20;99412.22;5029393;28;20045;-46
2023/08/25 09:44:02;;;;;;;5.43;3.17;;;;;;;28.82;24.64;99417.47;5029495;28;20045;-48
2023/08/25 09:46:30;;;;;;;8.27;6.65;;;;;;;30.95;23.10;99434.91;5023510;28;20072;-49
2023/08/25 09:49:36;;;;;;;3.75;2.35;;;;;;;34.13;19.97;99451.59;5048598;28;20041;-47
2023/08/25 09:52:02;;;;;;;5.15;1.33;;;;;;;35.63;19.10;99424.16;5008145;28;20045;-52
2023/08/25 09:54:28;;;;;;;3.30;1.58;;;;;;;37.20;18.01;99443.31;5027962;28;20132;-50
2023/08/25 09:56:55;;;;;;;3.67;1.67;;;;;;;38.53;16.94;99443.59;4994736;28;20136;-52
2023/08/25 09:59:21;;;;;;;2.53;1.70;;;;;;;39.67;16.55;99444.44;5029487;28;20057;-54
2023/08/25 10:01:47;;;;;;;6.50;1.90;;;;;;;40.40;15.78;99420.78;5022364;28;20430;-48
2023/08/25 10:04:13;;;;;;;3.72;1.90;;;;;;;41.28;15.81;99442.28;5025940;28;20061;-47
2023/08/25 10:06:40;;;;;;;3.10;2.10;;;;;;;42.08;15.31;99446.00;5025379;28;20045;-47
2023/08/25 10:09:06;;;;;;;2.35;2.00;;;;;;;42.45;14.66;99443.22;5026458;28;20045;-47
2023/08/25 10:11:37;;;;;;;3.47;2.20;;;;;;;42.96;14.42;99445.06;5029097;28;20073;-50
2023/08/25 10:14:06;;;;;;;2.67;2.10;;;;;;;42.60;14.41;99446.84;5027537;28;20088;-49
2023/08/25 10:16:37;;;;;;;3.60;1.65;;;;;;;40.89;15.05;99444.28;5016593;28;20088;-49
2023/08/25 10:19:05;;;;;;;4.00;1.60;;;;;;;39.02;16.53;99437.81;5025357;28;20520;-49
2023/08/25 10:21:31;;;;;;;2.47;1.63;;;;;;;37.64;16.64;99409.47;5007811;28;20402;-47
2023/08/25 10:23:59;;;;;;;2.22;1.90;;;;;;;37.85;16.38;99437.91;5024613;28;20051;-51
2023/08/25 10:26:26;;;;;;;4.45;2.80;;;;;;;39.32;15.47;99449.22;5036521;28;20042;-47
2023/08/25 10:28:52;;;;;;;2.95;1.83;;;;;;;40.32;14.44;99429.38;5003217;28;20076;-48
2023/08/25 10:31:19;;;;;;;2.03;1.70;;;;;;;41.44;13.48;99437.78;5026563;28;20051;-53
2023/08/25 10:33:46;;;;;;;2.03;1.83;;;;;;;42.04;13.50;99448.41;5010625;28;20036;-53
2023/08/25 10:36:22;;;;;;;3.13;2.00;;;;;;;42.40;13.13;99441.25;5025145;28;20280;-50
2023/08/25 10:38:55;;;;;;;5.93;5.00;;;;;;;43.06;12.63;99444.28;5028718;28;20487;-50
2023/08/25 10:41:21;;;;;;;7.10;5.25;;;;;;;43.41;13.01;99443.50;5026998;28;20052;-50
2023/08/25 10:43:52;;;;;;;4.47;3.85;;;;;;;43.57;12.81;99441.63;5028504;28;20037;-50
2023/08/25 10:46:20;;;;;;;2.88;2.53;;;;;;;43.69;12.59;99437.53;5027109;28;20083;-53
2023/08/25 10:48:48;;;;;;;2.03;1.88;;;;;;;43.67;12.56;99438.88;4971486;28;20430;-53
2023/08/25 10:51:19;;;;;;;2.17;1.95;;;;;;;43.29;12.35;99441.03;5025353;28;20037;-51
2023/08/25 10:53:49;;;;;;;3.05;2.05;;;;;;;43.21;13.00;99407.91;5035541;28;20448;-52
2023/08/25 10:56:18;;;;;;;2.25;1.80;;;;;;;43.79;12.51;99425.72;5021204;28;20398;-51
2023/08/25 10:59:03;;;;;;;2.40;2.03;;;;;;;44.18;12.93;99429.50;5021896;28;20041;-51
2023/08/25 11:01:36;;;;;;;3.53;1.65;;;;;;;43.00;13.14;99424.28;5023048;28;20574;-52
2023/08/25 11:04:20;;;;;;;7.38;1.65;;;;;;;40.61;14.94;99415.34;5021584;28;20114;-52
2023/08/25 11:06:46;;;;;;;2.20;1.25;;;;;;;38.71;15.94;99412.72;5025845;28;20587;-48
2023/08/25 11:09:18;;;;;;;5.18;1.30;;;;;;;37.50;17.54;99416.16;5022595;28;20053;-49
2023/08/25 11:11:45;;;;;;;3.78;1.45;;;;;;;36.49;17.66;99406.03;5027991;28;20539;-49
2023/08/25 11:14:13;;;;;;;2.83;1.73;;;;;;;37.51;17.54;99404.25;5021594;28;20049;-47
2023/08/25 11:16:40;;;;;;;6.47;2.00;;;;;;;39.28;16.12;99410.00;5023927;28;20301;-46
2023/08/25 11:19:15;;;;;;;7.40;2.33;;;;;;;40.59;15.02;99401.13;5009493;28;20152;-48
2023/08/25 11:21:41;;;;;;;5.50;2.40;;;;;;;41.32;14.83;99410.66;5007334;28;20073;-47
2023/08/25 11:24:07;;;;;;;2.28;2.05;;;;;;;41.40;14.18;99415.63;5025328;28;20033;-47
2023/08/25 11:26:34;;;;;;;2.65;2.20;;;;;;;41.80;14.10;99409.72;5022607;28;20244;-51
2023/08/25 11:29:01;;;;;;;2.20;2.00;;;;;;;42.14;13.72;99404.75;5022650;28;20045;-45
2023/08/25 11:31:28;;;;;;;4.80;1.95;;;;;;;42.22;13.40;99403.44;5025157;28;20103;-50
2023/08/25 11:33:57;;;;;;;1.85;1.75;;;;;;;42.01;13.47;99404.41;5020046;28;20034;-49